Time;durP1;ratioP1;P1;durP2;ratioP2;P2;SDS_P1;SDS_P2;PMS_P1;PMS_P2;Temp;Humidity;BMP_temperature;BMP_pressure;BME280_temperature;BME280_humidity;BME280_pressure;Samples;Min_cycle;Max_cycle;Signal;HPM_P1;HPM_P2
2022/05/23 00:02:01;;;;;;;3.22;0.90;;;18.90;91.40;;;;;;4955783;29;20117;-76
2022/05/23 00:04:27;;;;;;;3.63;0.88;;;18.90;91.40;;;;;;4955320;29;20464;-74
2022/05/23 00:06:55;;;;;;;3.17;0.82;;;18.90;91.40;;;;;;4955794;29;20023;-75
2022/05/23 00:09:21;;;;;;;0.90;0.70;;;18.90;91.10;;;;;;4955041;29;20019;-75
2022/05/23 00:11:47;;;;;;;2.30;0.80;;;18.90;90.90;;;;;;4955890;29;20019;-75
2022/05/23 00:14:14;;;;;;;2.80;0.90;;;18.90;90.90;;;;;;4956894;29;20341;-75
2022/05/23 00:16:44;;;;;;;1.70;0.90;;;18.90;90.70;;;;;;4955167;29;20027;-75
2022/05/23 00:19:11;;;;;;;1.98;0.70;;;18.80;90.80;;;;;;4955517;29;20113;-75
2022/05/23 00:21:43;;;;;;;3.33;1.02;;;18.80;91.10;;;;;;4955175;29;20023;-75
2022/05/23 00:24:10;;;;;;;1.05;0.90;;;18.80;90.90;;;;;;4955118;29;20440;-75
2022/05/23 00:26:36;;;;;;;0.80;0.77;;;18.70;91.10;;;;;;4954828;29;20292;-75
2022/05/23 00:29:03;;;;;;;2.00;0.77;;;18.80;91.00;;;;;;4955323;29;20523;-75
2022/05/23 00:31:28;;;;;;;2.22;0.82;;;18.70;91.10;;;;;;4954461;29;20071;-75
2022/05/23 00:36:46;;;;;;;0.88;0.80;;;18.70;91.50;;;;;;4941157;28;20032;-75
2022/05/23 00:39:11;;;;;;;5.20;1.10;;;18.70;91.50;;;;;;4955139;29;20038;-75
2022/05/23 00:44:33;;;;;;;2.58;0.88;;;18.70;91.80;;;;;;4955954;29;20071;-75
2022/05/23 00:47:02;;;;;;;1.25;0.85;;;18.70;91.80;;;;;;4954971;29;20027;-75
2022/05/23 00:49:36;;;;;;;1.98;0.90;;;18.70;91.90;;;;;;4954459;29;20035;-75
2022/05/23 00:52:06;;;;;;;3.20;0.80;;;18.70;92.00;;;;;;4954895;29;20033;-75
2022/05/23 00:54:37;;;;;;;2.35;1.10;;;18.70;92.10;;;;;;4938778;29;20030;-76
2022/05/23 00:57:04;;;;;;;1.13;0.80;;;18.70;92.10;;;;;;4954776;28;20469;-75
2022/05/23 00:59:32;;;;;;;1.52;0.85;;;18.60;92.30;;;;;;4954410;29;20070;-76
2022/05/23 01:01:59;;;;;;;2.65;0.80;;;18.60;92.40;;;;;;4956080;29;20026;-75
2022/05/23 01:04:26;;;;;;;0.70;0.70;;;18.50;92.50;;;;;;4954532;29;20413;-76
2022/05/23 01:06:52;;;;;;;1.40;0.95;;;18.50;92.70;;;;;;4954770;29;20034;-75
2022/05/23 01:09:22;;;;;;;2.25;0.90;;;18.50;92.80;;;;;;4954745;29;20376;-75
2022/05/23 01:11:48;;;;;;;2.72;1.08;;;18.40;92.80;;;;;;4954696;29;20031;-76
2022/05/23 01:14:14;;;;;;;3.05;1.17;;;18.40;92.90;;;;;;4954649;29;20421;-76
2022/05/23 01:16:40;;;;;;;1.08;0.90;;;18.30;92.80;;;;;;4955370;29;20023;-75
2022/05/23 01:19:05;;;;;;;2.33;0.77;;;18.30;92.70;;;;;;4954808;29;20026;-75
2022/05/23 01:21:35;;;;;;;1.75;0.80;;;18.30;92.70;;;;;;4954076;29;20079;-75
2022/05/23 01:24:08;;;;;;;2.00;0.90;;;18.30;92.90;;;;;;4954300;29;20126;-75
2022/05/23 01:26:33;;;;;;;1.75;1.10;;;18.30;93.00;;;;;;4953854;29;20035;-75
2022/05/23 01:28:59;;;;;;;4.50;0.90;;;18.30;93.00;;;;;;4954377;29;20118;-75
2022/05/23 01:31:25;;;;;;;3.65;0.90;;;18.30;93.00;;;;;;4955073;29;20038;-75
2022/05/23 01:33:50;;;;;;;3.80;1.30;;;18.30;93.20;;;;;;4954363;29;20034;-76
2022/05/23 01:36:16;;;;;;;1.85;1.00;;;18.30;93.20;;;;;;4954429;29;20027;-75
2022/05/23 01:38:42;;;;;;;1.35;0.90;;;18.30;93.20;;;;;;4953925;29;20023;-76
2022/05/23 01:41:08;;;;;;;1.88;0.80;;;18.20;93.30;;;;;;4954115;29;20031;-75
2022/05/23 01:43:34;;;;;;;2.17;0.75;;;18.20;93.40;;;;;;4954840;29;20023;-75
2022/05/23 01:46:00;;;;;;;3.03;1.10;;;18.20;93.40;;;;;;4954198;29;20030;-75
2022/05/23 01:48:26;;;;;;;2.05;0.90;;;18.20;93.60;;;;;;4953482;29;20023;-75
2022/05/23 01:50:52;;;;;;;1.95;1.02;;;18.20;93.60;;;;;;4955153;29;20034;-75
2022/05/23 01:53:17;;;;;;;1.73;1.20;;;18.20;93.70;;;;;;4955506;28;20028;-75
2022/05/23 01:55:43;;;;;;;1.30;1.00;;;18.20;93.90;;;;;;4953504;29;20019;-75
2022/05/23 01:58:09;;;;;;;1.33;0.93;;;18.20;94.30;;;;;;4953593;29;20031;-75
2022/05/23 02:03:19;;;;;;;2.30;1.08;;;18.20;94.50;;;;;;4954778;29;20568;-75
2022/05/23 02:05:45;;;;;;;1.77;0.95;;;18.20;94.60;;;;;;4954020;29;20102;-75
2022/05/23 02:08:11;;;;;;;1.20;1.00;;;18.20;94.70;;;;;;4953701;29;20023;-75
2022/05/23 02:10:36;;;;;;;3.25;1.10;;;18.20;94.70;;;;;;4952804;29;20369;-75
2022/05/23 02:13:03;;;;;;;2.03;0.93;;;18.10;94.70;;;;;;4954836;28;20102;-75
2022/05/23 02:15:31;;;;;;;1.13;1.00;;;18.10;94.40;;;;;;4953262;29;20023;-75
2022/05/23 02:17:58;;;;;;;2.67;0.93;;;18.10;94.40;;;;;;4953810;29;20117;-75
2022/05/23 02:20:26;;;;;;;1.33;0.82;;;18.10;94.50;;;;;;4954399;29;20372;-76
2022/05/23 02:22:52;;;;;;;1.35;0.85;;;18.10;94.50;;;;;;4954519;28;20349;-75
2022/05/23 02:25:17;;;;;;;4.10;1.10;;;18.10;94.60;;;;;;4953416;29;20134;-75
2022/05/23 02:27:43;;;;;;;1.10;0.98;;;18.10;94.50;;;;;;4952795;29;20045;-75
2022/05/23 02:30:09;;;;;;;1.63;1.08;;;18.10;94.70;;;;;;4953499;29;20035;-74
2022/05/23 02:32:34;;;;;;;3.30;1.13;;;18.10;94.80;;;;;;4953111;29;20019;-77
2022/05/23 02:35:00;;;;;;;2.20;0.95;;;18.10;95.00;;;;;;4955109;29;20031;-77
2022/05/23 02:37:26;;;;;;;1.60;0.90;;;18.10;94.90;;;;;;4953180;29;20075;-77
2022/05/23 02:39:51;;;;;;;1.60;1.05;;;18.10;95.10;;;;;;4953968;29;20031;-77
2022/05/23 02:42:17;;;;;;;1.65;1.00;;;18.10;94.90;;;;;;4954099;29;20118;-77
2022/05/23 02:44:44;;;;;;;3.08;0.93;;;18.10;94.80;;;;;;4953319;29;20023;-75
2022/05/23 02:47:10;;;;;;;2.35;1.20;;;18.10;94.70;;;;;;4953575;29;20023;-75
2022/05/23 02:49:36;;;;;;;1.42;1.02;;;18.00;95.00;;;;;;4952817;29;20461;-75
2022/05/23 02:52:01;;;;;;;2.67;1.00;;;18.10;94.70;;;;;;4953256;29;20468;-75
2022/05/23 02:54:27;;;;;;;2.28;0.70;;;18.10;94.80;;;;;;4952975;29;20046;-76
2022/05/23 02:56:52;;;;;;;2.72;0.90;;;18.10;94.60;;;;;;4953423;29;20023;-75
2022/05/23 02:59:18;;;;;;;2.97;1.40;;;18.10;94.40;;;;;;4953402;29;20480;-75
2022/05/23 03:04:28;;;;;;;4.38;1.17;;;18.20;94.30;;;;;;4954096;29;20122;-76
2022/05/23 03:06:53;;;;;;;1.70;1.20;;;18.20;94.10;;;;;;4953324;29;20122;-75
2022/05/23 03:09:19;;;;;;;1.50;1.00;;;18.30;94.20;;;;;;4953377;29;20453;-75
2022/05/23 03:11:44;;;;;;;3.83;1.75;;;18.30;94.10;;;;;;4952438;29;20026;-74
2022/05/23 03:14:10;;;;;;;2.60;1.45;;;18.30;93.90;;;;;;4952899;29;20019;-75
2022/05/23 03:16:35;;;;;;;2.15;1.15;;;18.30;93.80;;;;;;4952612;29;20046;-76
2022/05/23 03:19:01;;;;;;;2.63;1.20;;;18.30;93.80;;;;;;4953263;29;20461;-75
2022/05/23 03:27:01;;;;;;;2.58;1.52;;;18.30;94.20;;;;;;4957928;29;20047;-75
2022/05/23 03:29:27;;;;;;;3.28;1.17;;;18.30;94.50;;;;;;4956378;29;20114;-77
2022/05/23 03:31:53;;;;;;;2.22;1.10;;;18.10;94.80;;;;;;4956754;29;20023;-76
2022/05/23 03:34:19;;;;;;;1.40;1.08;;;18.00;95.00;;;;;;4956665;29;20042;-76
2022/05/23 03:36:44;;;;;;;7.18;1.15;;;18.00;95.60;;;;;;4955951;29;20445;-76
2022/05/23 03:39:10;;;;;;;3.25;1.05;;;18.00;96.00;;;;;;4957496;29;20094;-75
2022/05/23 03:41:38;;;;;;;4.45;2.72;;;18.00;96.50;;;;;;4956005;29;20019;-76
2022/05/23 03:44:05;;;;;;;3.40;1.65;;;18.00;96.70;;;;;;4972726;28;20031;-76
2022/05/23 03:46:31;;;;;;;2.90;1.70;;;18.00;97.00;;;;;;4975073;28;20023;-76
2022/05/23 03:48:57;;;;;;;3.67;1.80;;;17.90;98.10;;;;;;4975543;28;20059;-76
2022/05/23 03:51:23;;;;;;;4.40;1.67;;;17.90;99.40;;;;;;4975458;28;20480;-76
2022/05/23 03:53:48;;;;;;;4.38;1.52;;;17.80;99.90;;;;;;4976324;28;20031;-76
2022/05/23 03:56:14;;;;;;;3.22;1.70;;;17.70;99.90;;;;;;4976497;28;20101;-76
2022/05/23 03:58:39;;;;;;;2.85;2.03;;;17.60;99.90;;;;;;4976191;28;20033;-76
2022/05/23 04:01:15;;;;;;;2.13;1.40;;;17.50;99.90;;;;;;4959364;28;20031;-76
2022/05/23 04:03:41;;;;;;;2.85;1.60;;;17.40;99.90;;;;;;4975131;28;20479;-77
2022/05/23 04:06:07;;;;;;;5.57;1.70;;;17.40;99.90;;;;;;4975461;28;20026;-77
2022/05/23 04:08:35;;;;;;;1.90;1.70;;;17.40;99.90;;;;;;4958808;28;20113;-77
2022/05/23 04:11:02;;;;;;;3.38;1.77;;;17.30;99.90;;;;;;4976634;28;20062;-77
2022/05/23 04:13:28;;;;;;;2.40;1.33;;;17.30;99.90;;;;;;4975789;28;20135;-77
2022/05/23 04:15:54;;;;;;;4.10;1.98;;;17.30;99.90;;;;;;4974875;28;20117;-78
2022/05/23 04:18:20;;;;;;;4.75;1.88;;;17.40;99.90;;;;;;4976537;28;20030;-76
2022/05/23 04:20:46;;;;;;;5.03;2.05;;;17.40;99.90;;;;;;4974552;28;20376;-75
2022/05/23 04:23:11;;;;;;;4.03;2.10;;;17.30;99.90;;;;;;4975960;28;20054;-76
2022/05/23 04:25:41;;;;;;;3.72;2.22;;;17.20;99.90;;;;;;4958138;28;20027;-76
2022/05/23 04:28:08;;;;;;;4.03;2.00;;;17.30;99.90;;;;;;4974737;28;20031;-76
2022/05/23 04:30:34;;;;;;;4.72;2.20;;;17.30;99.90;;;;;;4975551;28;20053;-77
2022/05/23 04:35:44;;;;;;;5.93;2.30;;;17.30;99.90;;;;;;4975310;28;20158;-75
2022/05/23 04:38:11;;;;;;;5.50;2.42;;;17.40;99.90;;;;;;4974412;28;20074;-75
2022/05/23 04:40:37;;;;;;;6.90;2.47;;;17.30;99.90;;;;;;4975029;28;20113;-75
2022/05/23 04:43:03;;;;;;;3.88;2.00;;;17.30;99.90;;;;;;4975367;28;20048;-76
2022/05/23 04:45:29;;;;;;;5.50;2.22;;;17.30;99.90;;;;;;4958383;28;20531;-75
2022/05/23 04:50:38;;;;;;;5.38;2.20;;;17.10;99.90;;;;;;4974578;28;20045;-76
2022/05/23 04:53:05;;;;;;;2.63;1.80;;;17.20;99.90;;;;;;4958103;28;20023;-75
2022/05/23 04:55:33;;;;;;;2.85;2.10;;;17.20;99.90;;;;;;4974263;28;20026;-76
2022/05/23 04:57:59;;;;;;;4.10;2.17;;;17.20;99.90;;;;;;4974169;28;20035;-75
2022/05/23 05:00:29;;;;;;;4.50;2.35;;;17.20;99.90;;;;;;4975050;28;20023;-75
2022/05/23 05:02:59;;;;;;;4.70;2.05;;;17.20;99.90;;;;;;4973370;28;20400;-75
2022/05/23 05:05:26;;;;;;;4.75;2.13;;;17.20;99.90;;;;;;4973824;28;20372;-75
2022/05/23 05:07:52;;;;;;;6.20;2.17;;;17.20;99.90;;;;;;4974817;28;20310;-75
2022/05/23 05:10:18;;;;;;;6.28;2.45;;;17.20;99.90;;;;;;4974375;28;20137;-76
2022/05/23 05:12:44;;;;;;;4.32;2.00;;;17.20;99.90;;;;;;4973617;28;20081;-76
2022/05/23 05:15:10;;;;;;;4.18;2.28;;;17.20;99.90;;;;;;4974354;28;20018;-77
2022/05/23 05:17:36;;;;;;;6.22;2.20;;;17.20;99.90;;;;;;4957586;28;20058;-76
2022/05/23 05:20:03;;;;;;;4.25;2.08;;;17.20;99.90;;;;;;4957813;28;20431;-76
2022/05/23 05:22:28;;;;;;;5.80;2.33;;;17.20;99.90;;;;;;4973990;28;20376;-76
2022/05/23 05:24:54;;;;;;;5.68;2.17;;;17.10;99.90;;;;;;4973108;28;20047;-76
2022/05/23 05:27:20;;;;;;;4.03;2.33;;;17.10;99.90;;;;;;4973819;28;20038;-76
2022/05/23 05:29:45;;;;;;;7.00;2.13;;;17.20;99.90;;;;;;4957330;28;20073;-76
2022/05/23 05:32:20;;;;;;;3.05;2.10;;;17.20;99.90;;;;;;4975158;28;20448;-76
2022/05/23 05:34:56;;;;;;;4.03;2.05;;;17.20;99.90;;;;;;4973664;28;20065;-76
2022/05/23 05:37:30;;;;;;;3.85;1.80;;;17.20;99.90;;;;;;4973772;28;20122;-76
2022/05/23 05:39:58;;;;;;;3.22;1.80;;;17.20;99.90;;;;;;4957294;28;20031;-77
2022/05/23 05:42:30;;;;;;;9.80;1.88;;;17.20;99.90;;;;;;4974481;28;20456;-77
2022/05/23 05:45:01;;;;;;;3.17;2.10;;;17.20;99.90;;;;;;4972517;28;20475;-76
2022/05/23 05:47:32;;;;;;;5.40;2.00;;;17.10;99.90;;;;;;4973649;28;20510;-76
2022/05/23 05:50:01;;;;;;;3.13;1.90;;;17.20;99.90;;;;;;4972991;28;20035;-76
2022/05/23 05:52:31;;;;;;;5.68;2.00;;;17.10;99.90;;;;;;4973466;28;20045;-76
2022/05/23 05:54:57;;;;;;;2.13;1.52;;;17.20;99.90;;;;;;4973152;28;20467;-76
2022/05/23 05:57:24;;;;;;;2.53;2.00;;;17.20;99.90;;;;;;4973510;28;20054;-76
2022/05/23 05:59:51;;;;;;;4.13;1.85;;;17.30;99.90;;;;;;4973125;28;20027;-76
2022/05/23 06:02:17;;;;;;;3.67;1.80;;;17.30;99.90;;;;;;4973478;28;20062;-76
2022/05/23 06:04:42;;;;;;;3.10;1.52;;;17.40;99.90;;;;;;4973056;28;20022;-76
2022/05/23 06:12:44;;;;;;;2.67;1.60;;;17.50;99.90;;;;;;4974020;28;20029;-76
2022/05/23 06:15:10;;;;;;;3.85;1.60;;;17.50;99.90;;;;;;4974192;28;20031;-76
2022/05/23 06:17:42;;;;;;;2.90;1.80;;;17.50;99.90;;;;;;4974634;28;20440;-76
2022/05/23 06:20:08;;;;;;;;;;;17.60;99.90;;;;;;4973745;28;20034;-76
2022/05/23 06:22:34;;;;;;;3.88;1.60;;;17.70;99.90;;;;;;4974103;28;19905;-76
2022/05/23 06:25:02;;;;;;;4.80;1.80;;;17.70;99.90;;;;;;4972469;28;20050;-76
2022/05/23 06:27:28;;;;;;;4.43;1.60;;;17.90;99.90;;;;;;4957123;28;20085;-76
2022/05/23 06:29:53;;;;;;;4.57;1.73;;;17.90;99.90;;;;;;4972497;28;20030;-76
2022/05/23 06:32:19;;;;;;;3.20;1.90;;;18.00;99.90;;;;;;4974250;28;20054;-75
2022/05/23 06:34:44;;;;;;;4.45;1.80;;;18.10;99.90;;;;;;4956359;28;20109;-77
2022/05/23 06:37:10;;;;;;;4.00;2.10;;;18.20;99.90;;;;;;4973830;28;20102;-76
2022/05/23 06:39:36;;;;;;;4.03;2.10;;;18.30;99.90;;;;;;4973983;28;20503;-75
2022/05/23 06:42:01;;;;;;;2.10;1.70;;;18.40;99.90;;;;;;4956142;28;20062;-76
2022/05/23 06:44:27;;;;;;;5.03;1.85;;;18.40;99.90;;;;;;4950911;28;20449;-76
2022/05/23 06:46:53;;;;;;;2.17;1.60;;;18.40;99.90;;;;;;4980219;28;20018;-76
2022/05/23 06:49:18;;;;;;;4.70;1.88;;;18.50;99.90;;;;;;4985263;28;20023;-75
2022/05/23 06:51:49;;;;;;;3.85;2.10;;;18.50;99.90;;;;;;4979612;28;20045;-76
2022/05/23 06:54:19;;;;;;;3.15;1.83;;;18.60;99.90;;;;;;4972303;28;20115;-76
2022/05/23 06:56:45;;;;;;;7.88;1.77;;;18.70;99.90;;;;;;4958849;28;20030;-75
2022/05/23 06:59:12;;;;;;;4.00;1.60;;;18.70;99.90;;;;;;4976050;28;20114;-75
2022/05/23 07:01:38;;;;;;;3.22;1.80;;;18.80;99.90;;;;;;4959861;28;20290;-77
2022/05/23 07:04:04;;;;;;;2.78;1.70;;;18.80;99.90;;;;;;4959949;28;20030;-75
2022/05/23 07:14:42;;;;;;;7.80;1.90;;;18.90;99.90;;;;;;4976128;28;20029;-76
2022/05/23 07:17:07;;;;;;;2.80;2.00;;;18.90;99.90;;;;;;4975321;28;20026;-76
2022/05/23 07:19:39;;;;;;;4.72;1.83;;;19.00;99.90;;;;;;4975496;28;20050;-76
2022/05/23 07:22:05;;;;;;;2.88;1.70;;;19.00;99.90;;;;;;4975516;28;20023;-76
2022/05/23 07:24:31;;;;;;;4.32;1.95;;;19.00;99.90;;;;;;4976690;28;20042;-76
2022/05/23 07:26:58;;;;;;;3.95;2.03;;;19.10;99.90;;;;;;4974920;28;20065;-76
2022/05/23 07:29:24;;;;;;;3.05;2.00;;;19.20;99.90;;;;;;4975467;28;20026;-76
2022/05/23 07:31:51;;;;;;;3.63;1.95;;;19.30;99.90;;;;;;4975082;28;20026;-76
2022/05/23 07:34:17;;;;;;;2.50;1.75;;;19.30;99.90;;;;;;4976495;28;20019;-76
2022/05/23 07:36:44;;;;;;;3.45;2.03;;;19.50;99.90;;;;;;4975930;28;20031;-77
2022/05/23 07:39:11;;;;;;;4.18;2.22;;;19.50;99.90;;;;;;4976963;28;20022;-77
2022/05/23 07:41:39;;;;;;;3.67;2.08;;;19.50;99.90;;;;;;4975677;28;20031;-77
2022/05/23 07:44:11;;;;;;;5.03;1.60;;;19.50;99.90;;;;;;4978212;28;20022;-77
2022/05/23 07:46:37;;;;;;;3.50;2.00;;;19.50;99.90;;;;;;4975820;28;20464;-78
2022/05/23 07:49:04;;;;;;;3.20;1.98;;;19.50;99.90;;;;;;4974860;28;20033;-76
2022/05/23 07:51:32;;;;;;;4.60;2.13;;;19.60;99.90;;;;;;4956133;29;20233;-78
2022/05/23 08:02:16;;;;;;;6.72;2.28;;;19.50;99.90;;;;;;4976113;28;20041;-77
2022/05/23 08:04:42;;;;;;;2.78;2.10;;;19.50;99.90;;;;;;4963347;28;20094;-77
2022/05/23 08:07:09;;;;;;;6.03;2.00;;;19.50;99.90;;;;;;4962469;28;20121;-77
2022/05/23 08:09:36;;;;;;;3.40;2.25;;;19.40;99.90;;;;;;4974523;28;20126;-77
2022/05/23 08:12:04;;;;;;;3.38;2.10;;;19.50;99.90;;;;;;4974373;28;20026;-76
2022/05/23 08:14:30;;;;;;;4.20;2.35;;;19.40;99.90;;;;;;4974797;28;20027;-77
2022/05/23 08:16:56;;;;;;;3.60;2.30;;;19.40;99.90;;;;;;4974303;28;20022;-77
2022/05/23 08:19:21;;;;;;;6.20;2.53;;;19.50;99.90;;;;;;4974064;28;20080;-74
2022/05/23 08:21:51;;;;;;;3.53;2.22;;;19.50;99.90;;;;;;4973561;28;20113;-75
2022/05/23 08:24:17;;;;;;;4.28;2.28;;;19.50;99.90;;;;;;4974555;28;20051;-78
2022/05/23 08:26:43;;;;;;;3.15;2.10;;;19.60;99.90;;;;;;4974832;28;20113;-78
2022/05/23 08:29:09;;;;;;;3.47;2.03;;;19.60;99.90;;;;;;4958930;28;20026;-78
2022/05/23 08:31:36;;;;;;;6.38;2.45;;;19.70;99.90;;;;;;4976042;28;20483;-79
2022/05/23 08:34:01;;;;;;;4.03;2.17;;;19.80;99.90;;;;;;4974722;28;20157;-80
2022/05/23 08:36:27;;;;;;;3.08;2.50;;;20.00;99.90;;;;;;4975250;28;20077;-78
2022/05/23 08:38:53;;;;;;;4.45;2.05;;;20.10;99.90;;;;;;4975726;28;20372;-79
2022/05/23 08:41:24;;;;;;;4.50;2.20;;;20.20;99.90;;;;;;4975934;28;20039;-79
2022/05/23 08:44:07;;;;;;;4.65;2.28;;;20.20;99.90;;;;;;4974376;28;20019;-78
2022/05/23 08:46:43;;;;;;;2.80;2.20;;;20.20;99.90;;;;;;4956068;29;20031;-79
2022/05/23 08:49:18;;;;;;;4.72;2.50;;;20.10;99.90;;;;;;4957030;28;20031;-79
2022/05/23 08:51:58;;;;;;;3.63;2.40;;;20.10;99.90;;;;;;4958447;28;20064;-79
2022/05/23 08:54:31;;;;;;;6.47;3.00;;;20.30;99.90;;;;;;4958790;28;20041;-79
2022/05/23 08:56:58;;;;;;;6.07;3.13;;;20.40;99.90;;;;;;4974347;28;20034;-79
2022/05/23 08:59:52;;;;;;;7.53;2.67;;;20.40;99.90;;;;;;4975796;28;20019;-79
2022/05/23 09:02:42;;;;;;;3.92;2.60;;;20.50;99.90;;;;;;4973013;28;20121;-79
2022/05/23 09:05:36;;;;;;;4.57;2.75;;;20.50;99.90;;;;;;4974805;28;20495;-79
2022/05/23 09:08:06;;;;;;;4.45;2.80;;;20.60;99.90;;;;;;4971811;28;20153;-79
2022/05/23 09:10:48;;;;;;;7.43;3.22;;;20.60;99.90;;;;;;4958484;28;20038;-79
2022/05/23 09:13:16;;;;;;;;;;;20.70;99.90;;;;;;4974877;28;20460;-79
2022/05/23 09:15:43;;;;;;;11.10;3.85;;;20.70;99.90;;;;;;4958397;28;20386;-79
2022/05/23 09:18:16;;;;;;;6.15;3.45;;;20.70;99.90;;;;;;4975423;28;20450;-79
2022/05/23 09:20:47;;;;;;;4.90;3.10;;;20.90;99.90;;;;;;4974947;28;20051;-79
2022/05/23 09:23:27;;;;;;;5.85;3.10;;;20.90;99.90;;;;;;4973981;28;20030;-79
2022/05/23 09:25:54;;;;;;;5.60;3.17;;;20.90;99.90;;;;;;4974907;28;20023;-79
2022/05/23 09:28:37;;;;;;;5.82;3.20;;;20.90;99.90;;;;;;4954891;29;20039;-79
2022/05/23 09:31:08;;;;;;;4.38;2.90;;;21.00;99.90;;;;;;4938732;28;20031;-79
2022/05/23 09:33:41;;;;;;;;;;;21.20;99.90;;;;;;4975717;28;20572;-79
2022/05/23 09:36:13;;;;;;;4.97;2.22;;;21.30;99.90;;;;;;4973173;28;19906;-79
2022/05/23 09:38:52;;;;;;;7.82;2.70;;;21.40;99.90;;;;;;4975379;28;20027;-79
2022/05/23 09:50:05;;;;;;;6.75;3.00;;;22.00;99.90;;;;;;4974636;28;20100;-79
2022/05/23 09:52:36;;;;;;;4.93;2.58;;;22.10;99.90;;;;;;4957723;28;20105;-79
2022/05/23 09:55:05;;;;;;;3.20;2.20;;;22.20;99.90;;;;;;4973268;28;20034;-79
2022/05/23 09:57:32;;;;;;;4.45;2.35;;;22.20;99.90;;;;;;4973569;28;20041;-79
2022/05/23 10:00:06;;;;;;;3.30;2.28;;;22.20;99.90;;;;;;4974451;28;20166;-79
2022/05/23 10:02:47;;;;;;;8.13;2.40;;;22.20;99.90;;;;;;4974897;28;20033;-79
2022/05/23 10:05:25;;;;;;;4.47;2.60;;;22.20;99.90;;;;;;4974731;28;20057;-79
2022/05/23 10:07:54;;;;;;;3.60;2.45;;;22.20;99.90;;;;;;4973215;28;20460;-79
2022/05/23 10:10:28;;;;;;;5.07;2.58;;;22.20;99.90;;;;;;4973157;28;20132;-79
2022/05/23 10:13:18;;;;;;;7.38;2.80;;;22.20;99.90;;;;;;4953719;29;20036;-78
2022/05/23 10:15:47;;;;;;;5.35;2.42;;;22.10;99.90;;;;;;4959957;28;20033;-79
2022/05/23 10:18:48;;;;;;;5.90;2.50;;;22.00;99.90;;;;;;4973145;28;20029;-79
2022/05/23 10:21:28;;;;;;;7.20;2.60;;;21.90;99.90;;;;;;4952436;28;20039;-78
2022/05/23 10:24:03;;;;;;;6.85;2.53;;;21.90;99.90;;;;;;4973481;28;20075;-79
2022/05/23 10:26:33;;;;;;;3.38;2.38;;;21.90;99.90;;;;;;4973084;28;20058;-79
2022/05/23 10:29:12;;;;;;;4.30;2.58;;;21.90;99.90;;;;;;4973072;28;20388;-79
2022/05/23 10:31:48;;;;;;;7.22;2.92;;;21.80;99.90;;;;;;4940996;29;20122;-79
2022/05/23 10:34:35;;;;;;;4.47;3.25;;;21.80;99.90;;;;;;4967637;28;20022;-78
2022/05/23 10:37:03;;;;;;;6.70;3.40;;;21.90;99.90;;;;;;4957404;29;20023;-79
2022/05/23 10:42:52;;;;;;;5.53;3.70;;;21.70;99.90;;;;;;4968741;28;20046;-79
2022/05/23 10:45:30;;;;;;;5.90;4.35;;;21.60;99.90;;;;;;4954117;28;20037;-79
2022/05/23 10:48:20;;;;;;;7.47;4.60;;;21.50;99.90;;;;;;4978392;28;20030;-79
2022/05/23 10:51:14;;;;;;;8.57;5.07;;;21.40;99.90;;;;;;4980382;28;20034;-78
2022/05/23 10:54:17;;;;;;;6.55;4.35;;;21.20;99.90;;;;;;4990934;28;20019;-79
2022/05/23 10:56:51;;;;;;;11.70;4.85;;;21.00;99.90;;;;;;4960738;28;20031;-79
2022/05/23 10:59:32;;;;;;;8.50;5.15;;;20.80;99.90;;;;;;4960572;28;20499;-79
2022/05/23 11:02:16;;;;;;;8.93;4.50;;;20.70;99.90;;;;;;4956878;29;20030;-79
2022/05/23 11:05:02;;;;;;;7.57;4.68;;;20.70;99.90;;;;;;4974516;28;20119;-79
2022/05/23 11:08:01;;;;;;;5.95;3.60;;;20.70;99.90;;;;;;4972904;28;20074;-80
2022/05/23 11:10:48;;;;;;;9.85;3.70;;;20.60;99.90;;;;;;4952818;28;20039;-79
2022/05/23 11:13:34;;;;;;;5.03;3.10;;;20.50;99.90;;;;;;4976416;28;20031;-80
2022/05/23 11:16:38;;;;;;;7.25;3.67;;;20.50;99.90;;;;;;4956615;29;20027;-79
2022/05/23 11:19:06;;;;;;;5.78;3.30;;;20.50;99.90;;;;;;4972886;28;20034;-79
2022/05/23 11:22:04;;;;;;;6.97;3.45;;;20.50;99.90;;;;;;4977494;28;20030;-79
2022/05/23 11:24:35;;;;;;;6.78;2.97;;;20.50;99.90;;;;;;4965595;28;20055;-79
2022/05/23 11:35:48;;;;;;;4.85;2.40;;;20.50;99.90;;;;;;4963849;28;20061;-78
2022/05/23 11:38:15;;;;;;;7.20;2.55;;;20.50;99.90;;;;;;4975450;28;20428;-80
2022/05/23 11:41:07;;;;;;;6.38;2.35;;;20.70;99.90;;;;;;4992580;28;20073;-80
2022/05/23 11:43:33;;;;;;;7.03;2.70;;;20.70;99.90;;;;;;4944002;28;20109;-81
2022/05/23 11:46:02;;;;;;;10.10;4.40;;;20.80;99.90;;;;;;4975207;28;20069;-78
2022/05/23 11:48:34;;;;;;;9.02;4.35;;;20.90;99.90;;;;;;4975890;28;20023;-79
2022/05/23 11:51:24;;;;;;;5.38;2.58;;;21.00;99.90;;;;;;4959200;28;20368;-78
2022/05/23 11:54:10;;;;;;;5.07;2.28;;;21.10;99.90;;;;;;4940592;29;20031;-79
2022/05/23 11:56:39;;;;;;;8.35;2.90;;;21.10;99.90;;;;;;4953092;28;20217;-78
2022/05/23 11:59:07;;;;;;;6.80;2.22;;;21.20;99.90;;;;;;4956438;28;20031;-78
2022/05/23 12:01:34;;;;;;;7.22;2.65;;;21.20;99.90;;;;;;4976804;28;20027;-79
2022/05/23 12:04:00;;;;;;;4.97;2.17;;;21.30;99.90;;;;;;4974901;28;20022;-79
2022/05/23 12:06:26;;;;;;;6.10;2.20;;;21.20;99.90;;;;;;4976563;28;20042;-79
2022/05/23 12:08:58;;;;;;;5.22;2.50;;;21.20;99.90;;;;;;4955647;29;20027;-79
2022/05/23 12:11:28;;;;;;;4.30;2.13;;;21.20;99.90;;;;;;4960339;28;20039;-79
2022/05/23 12:13:59;;;;;;;11.93;2.33;;;21.20;99.90;;;;;;4958836;28;20031;-79
2022/05/23 12:16:31;;;;;;;7.00;2.38;;;21.20;99.90;;;;;;4975245;28;20042;-79
2022/05/23 12:19:33;;;;;;;5.85;2.70;;;21.20;99.90;;;;;;4958798;28;20054;-79
2022/05/23 12:22:17;;;;;;;;;;;21.20;99.90;;;;;;4974788;28;20041;-79
2022/05/23 12:25:18;;;;;;;5.50;2.55;;;21.20;99.90;;;;;;4958783;28;20016;-79
2022/05/23 12:27:43;;;;;;;4.28;2.15;;;21.20;99.90;;;;;;4959146;28;20062;-79
2022/05/23 12:30:21;;;;;;;3.95;2.53;;;21.30;99.90;;;;;;4955138;29;20077;-79
2022/05/23 12:33:00;;;;;;;8.43;2.85;;;21.30;99.90;;;;;;4969953;28;20030;-79
2022/05/23 12:35:54;;;;;;;7.53;2.58;;;21.20;99.90;;;;;;4942948;28;20023;-79
2022/05/23 12:38:41;;;;;;;6.80;2.65;;;21.30;99.90;;;;;;4975931;28;20059;-80
2022/05/23 12:41:15;;;;;;;4.90;2.75;;;21.40;99.90;;;;;;4974565;28;20468;-79
2022/05/23 12:43:59;;;;;;;7.28;3.00;;;21.50;99.90;;;;;;4958652;28;20122;-79
2022/05/23 12:46:59;;;;;;;10.05;2.70;;;21.60;99.90;;;;;;4955328;29;20031;-80
2022/05/23 12:49:40;;;;;;;8.35;2.50;;;21.70;99.90;;;;;;4958560;28;20025;-80
2022/05/23 12:52:18;;;;;;;8.43;3.40;;;21.90;99.90;;;;;;4957916;28;20031;-79
2022/05/23 12:54:59;;;;;;;5.88;3.17;;;22.10;99.90;;;;;;4958295;28;20474;-79
2022/05/23 12:57:42;;;;;;;7.90;4.10;;;22.30;99.90;;;;;;4958419;28;20038;-79
2022/05/23 13:00:46;;;;;;;6.60;3.30;;;22.60;99.90;;;;;;4954817;29;20027;-79
2022/05/23 13:03:31;;;;;;;7.43;2.55;;;22.90;99.90;;;;;;4972255;28;20114;-80
2022/05/23 13:06:10;;;;;;;6.95;2.80;;;22.90;99.90;;;;;;4957186;28;20030;-79
2022/05/23 13:09:02;;;;;;;5.93;2.45;;;23.20;99.90;;;;;;4970108;28;20086;-79
2022/05/23 13:11:29;;;;;;;;;;;23.50;99.90;;;;;;4943112;28;20038;-79
2022/05/23 13:13:58;;;;;;;5.75;1.98;;;23.50;99.90;;;;;;4973568;28;19906;-78
2022/05/23 13:16:28;;;;;;;4.85;2.00;;;23.50;99.90;;;;;;4975011;28;20046;-80
2022/05/23 13:22:05;;;;;;;7.05;2.60;;;23.80;99.90;;;;;;4975287;28;20114;-79
2022/05/23 13:24:55;;;;;;;8.02;2.85;;;24.20;99.80;;;;;;4973626;28;20195;-79
2022/05/23 13:27:33;;;;;;;8.43;2.83;;;24.70;99.70;;;;;;4973004;28;20034;-79
2022/05/23 13:30:08;;;;;;;4.95;2.60;;;25.00;98.70;;;;;;4974235;28;20035;-79
2022/05/23 13:32:35;;;;;;;5.20;2.60;;;25.20;98.40;;;;;;4974863;28;20026;-79
2022/05/23 13:35:14;;;;;;;5.30;2.75;;;25.50;97.30;;;;;;4973356;28;20057;-80
2022/05/23 13:37:40;;;;;;;5.43;2.70;;;26.00;96.90;;;;;;4973909;28;20023;-79
2022/05/23 13:40:15;;;;;;;7.15;3.03;;;26.50;96.10;;;;;;4973053;28;20027;-78
2022/05/23 13:42:42;;;;;;;4.70;2.67;;;26.70;95.10;;;;;;4973501;28;20023;-80
2022/05/23 13:45:14;;;;;;;5.45;2.80;;;26.90;95.00;;;;;;4972220;28;20038;-78
2022/05/23 13:47:51;;;;;;;6.55;3.00;;;27.00;94.50;;;;;;4973541;28;20027;-79
2022/05/23 13:50:21;;;;;;;6.05;2.63;;;27.10;94.00;;;;;;4974003;28;20078;-79
2022/05/23 13:52:56;;;;;;;6.07;2.80;;;27.20;94.20;;;;;;4973551;28;20030;-79
2022/05/23 13:55:30;;;;;;;4.93;2.92;;;27.00;94.30;;;;;;4973999;28;20408;-78
2022/05/23 13:58:01;;;;;;;6.28;2.97;;;26.80;94.60;;;;;;4973188;28;20549;-79
2022/05/23 14:00:36;;;;;;;5.95;2.78;;;26.50;94.90;;;;;;4973310;28;20165;-79
2022/05/23 14:03:33;;;;;;;10.80;3.05;;;26.40;94.90;;;;;;4972463;28;20402;-78
2022/05/23 14:06:00;;;;;;;7.32;2.78;;;26.60;95.60;;;;;;4972367;28;20456;-78
2022/05/23 14:08:35;;;;;;;5.18;3.05;;;26.70;95.10;;;;;;4974080;28;20030;-79
2022/05/23 14:11:22;;;;;;;5.82;2.90;;;26.80;94.70;;;;;;4973814;28;20131;-79
2022/05/23 14:13:51;;;;;;;6.40;2.85;;;26.90;94.70;;;;;;4978598;28;20034;-79
2022/05/23 14:16:19;;;;;;;5.95;2.85;;;27.20;94.40;;;;;;4981956;28;20033;-79